Time;durP1;ratioP1;P1;durP2;ratioP2;P2;SDS_P1;SDS_P2;PMS_P1;PMS_P2;Temp;Humidity;BMP_temperature;BMP_pressure;BME280_temperature;BME280_humidity;BME280_pressure;Samples;Min_cycle;Max_cycle;Signal;HPM_P1;HPM_P2
2022/04/16 00:00:22;;;;;;;14.63;12.98;;;;;;;;;;5053308;28;20175;-72
2022/04/16 00:02:48;;;;;;;14.93;12.77;;;;;;;;;;5055498;28;20204;-74
2022/04/16 00:05:15;;;;;;;17.55;13.45;;;;;;;;;;5055518;28;20218;-75
2022/04/16 00:07:41;;;;;;;18.95;13.60;;;;;;;;;;5055280;28;20189;-74
2022/04/16 00:10:08;;;;;;;19.77;14.48;;;;;;;;;;5055045;28;20301;-74
2022/04/16 00:12:34;;;;;;;18.63;13.60;;;;;;;;;;5054832;28;20191;-74
2022/04/16 00:15:00;;;;;;;15.07;11.98;;;;;;;;;;5055211;28;20173;-75
2022/04/16 00:17:26;;;;;;;15.75;12.98;;;;;;;;;;5053837;28;20655;-74
2022/04/16 00:19:52;;;;;;;18.00;13.30;;;;;;;;;;5055124;28;20166;-73
2022/04/16 00:22:18;;;;;;;15.75;13.55;;;;;;;;;;5054681;28;20189;-74
2022/04/16 00:24:46;;;;;;;15.35;12.32;;;;;;;;;;5055020;28;20174;-73
2022/04/16 00:27:12;;;;;;;16.20;13.90;;;;;;;;;;5054954;28;20285;-74
2022/04/16 00:29:39;;;;;;;17.75;13.30;;;;;;;;;;5054727;28;20223;-74
2022/04/16 00:32:05;;;;;;;18.65;13.13;;;;;;;;;;5054415;28;20222;-74
2022/04/16 00:34:35;;;;;;;19.10;13.50;;;;;;;;;;5054906;28;20183;-73
2022/04/16 00:37:01;;;;;;;16.13;11.85;;;;;;;;;;5055046;28;20170;-74
2022/04/16 00:39:27;;;;;;;21.83;13.57;;;;;;;;;;5054855;28;20187;-73
2022/04/16 00:41:53;;;;;;;17.02;13.73;;;;;;;;;;5054231;28;20204;-73
2022/04/16 00:44:20;;;;;;;16.73;13.02;;;;;;;;;;5054558;28;20166;-73
2022/04/16 00:46:47;;;;;;;20.20;14.32;;;;;;;;;;5054654;28;20170;-75
2022/04/16 00:49:13;;;;;;;15.70;13.38;;;;;;;;;;5054470;28;20178;-75
2022/04/16 00:51:40;;;;;;;20.40;15.05;;;;;;;;;;5054016;28;20232;-72
2022/04/16 00:54:06;;;;;;;21.17;14.68;;;;;;;;;;5054673;28;20537;-75
2022/04/16 00:56:32;;;;;;;20.67;14.30;;;;;;;;;;5054516;28;20170;-73
2022/04/16 00:58:58;;;;;;;20.60;15.00;;;;;;;;;;5054481;28;20444;-75
2022/04/16 01:01:24;;;;;;;18.98;14.18;;;;;;;;;;5054095;28;20515;-74
2022/04/16 01:03:50;;;;;;;18.17;13.70;;;;;;;;;;5054332;28;20652;-75
2022/04/16 01:06:17;;;;;;;18.37;14.30;;;;;;;;;;5054343;28;20186;-76
2022/04/16 01:08:46;;;;;;;18.40;14.80;;;;;;;;;;5054024;28;20418;-74
2022/04/16 01:11:12;;;;;;;19.27;14.50;;;;;;;;;;5052762;28;20289;-73
2022/04/16 01:13:38;;;;;;;17.15;13.60;;;;;;;;;;5054062;28;20221;-74
2022/04/16 01:16:05;;;;;;;18.38;14.30;;;;;;;;;;5053898;28;20666;-75
2022/04/16 01:18:32;;;;;;;17.30;14.88;;;;;;;;;;5054008;28;20172;-74
2022/04/16 01:20:58;;;;;;;17.50;14.38;;;;;;;;;;5053529;28;20182;-75
2022/04/16 01:23:24;;;;;;;21.92;15.27;;;;;;;;;;5053889;28;20181;-73
2022/04/16 01:25:50;;;;;;;18.00;14.17;;;;;;;;;;5053784;28;20182;-74
2022/04/16 01:28:16;;;;;;;19.27;14.82;;;;;;;;;;5054183;28;20499;-74
2022/04/16 01:30:42;;;;;;;19.70;14.80;;;;;;;;;;5053386;28;20631;-75
2022/04/16 01:33:08;;;;;;;22.40;15.50;;;;;;;;;;5053686;28;20428;-75
2022/04/16 01:35:34;;;;;;;18.00;14.00;;;;;;;;;;5053670;28;20408;-73
2022/04/16 01:38:04;;;;;;;18.77;15.43;;;;;;;;;;5052233;28;20175;-75
2022/04/16 01:40:30;;;;;;;18.63;15.18;;;;;;;;;;5053297;28;20314;-75
2022/04/16 01:42:56;;;;;;;17.90;14.38;;;;;;;;;;5053650;28;20205;-76
2022/04/16 01:45:23;;;;;;;20.93;15.27;;;;;;;;;;5053597;28;20185;-76
2022/04/16 01:47:50;;;;;;;20.02;14.40;;;;;;;;;;5053518;28;20576;-74
2022/04/16 01:50:18;;;;;;;20.35;14.75;;;;;;;;;;5053159;28;20196;-76
2022/04/16 01:52:44;;;;;;;20.52;14.85;;;;;;;;;;5053513;28;20248;-73
2022/04/16 01:55:12;;;;;;;19.70;15.73;;;;;;;;;;5053433;28;20202;-74
2022/04/16 01:57:38;;;;;;;20.48;15.43;;;;;;;;;;5053403;28;20170;-73
2022/04/16 02:00:06;;;;;;;21.17;15.77;;;;;;;;;;5053350;28;20518;-74
2022/04/16 02:02:32;;;;;;;20.33;14.80;;;;;;;;;;5052811;28;20181;-73
2022/04/16 02:04:58;;;;;;;18.35;13.68;;;;;;;;;;5053285;28;20205;-75
2022/04/16 02:07:25;;;;;;;19.30;15.20;;;;;;;;;;5053372;28;20661;-73
2022/04/16 02:09:51;;;;;;;23.73;14.55;;;;;;;;;;5053146;28;20444;-76
2022/04/16 02:12:16;;;;;;;19.57;14.80;;;;;;;;;;5052868;28;20564;-74
2022/04/16 02:14:42;;;;;;;16.80;14.40;;;;;;;;;;5051810;28;20429;-75
2022/04/16 02:17:08;;;;;;;19.20;15.40;;;;;;;;;;5053256;28;20418;-75
2022/04/16 02:19:36;;;;;;;19.30;14.73;;;;;;;;;;5053156;28;20420;-73
2022/04/16 02:22:02;;;;;;;18.33;14.27;;;;;;;;;;5052426;28;20671;-75
2022/04/16 02:24:28;;;;;;;21.75;15.52;;;;;;;;;;5052931;28;20186;-74
2022/04/16 02:26:58;;;;;;;20.55;15.10;;;;;;;;;;5053028;28;20259;-73
2022/04/16 02:29:24;;;;;;;18.60;14.95;;;;;;;;;;5053019;28;20173;-73
2022/04/16 02:31:50;;;;;;;19.67;14.32;;;;;;;;;;5052559;28;20215;-74
2022/04/16 02:34:18;;;;;;;17.20;14.40;;;;;;;;;;5052968;28;20265;-74
2022/04/16 02:36:44;;;;;;;19.08;15.10;;;;;;;;;;5052794;28;20174;-74
2022/04/16 02:39:10;;;;;;;21.10;15.20;;;;;;;;;;5053013;28;20262;-73
2022/04/16 02:41:36;;;;;;;19.20;14.80;;;;;;;;;;5052620;28;20534;-73
2022/04/16 02:44:02;;;;;;;23.15;15.50;;;;;;;;;;5053025;28;20412;-73
2022/04/16 02:49:13;;;;;;;23.48;15.57;;;;;;;;;;5053054;28;20188;-73
2022/04/16 02:51:39;;;;;;;20.00;14.70;;;;;;;;;;5051129;28;20662;-74
2022/04/16 02:54:05;;;;;;;18.70;14.30;;;;;;;;;;5051569;28;20189;-74
2022/04/16 02:56:31;;;;;;;23.30;15.80;;;;;;;;;;5052727;28;20175;-73
2022/04/16 02:58:57;;;;;;;22.58;16.38;;;;;;;;;;5052934;28;20419;-73
2022/04/16 03:01:23;;;;;;;21.57;14.97;;;;;;;;;;5052456;28;20194;-74
2022/04/16 03:03:49;;;;;;;20.90;15.32;;;;;;;;;;5052758;28;20428;-73
2022/04/16 03:06:15;;;;;;;18.50;15.05;;;;;;;;;;5052842;28;20183;-73
2022/04/16 03:08:41;;;;;;;17.95;13.90;;;;;;;;;;5052489;28;20179;-74
2022/04/16 03:11:07;;;;;;;17.43;13.17;;;;;;;;;;5051014;28;20240;-73
2022/04/16 03:13:36;;;;;;;20.33;14.53;;;;;;;;;;5034875;28;20434;-74
2022/04/16 03:18:47;;;;;;;16.27;13.27;;;;;;;;;;5052755;28;20216;-75
2022/04/16 03:21:13;;;;;;;17.63;14.50;;;;;;;;;;5052035;28;20245;-74
2022/04/16 03:23:39;;;;;;;20.52;15.43;;;;;;;;;;5052481;28;20420;-73
2022/04/16 03:26:05;;;;;;;18.45;15.13;;;;;;;;;;5051330;28;20182;-76
2022/04/16 03:28:34;;;;;;;20.67;14.50;;;;;;;;;;5052542;28;20269;-74
2022/04/16 03:31:00;;;;;;;20.73;14.13;;;;;;;;;;5050550;28;20464;-73
2022/04/16 03:33:26;;;;;;;20.33;14.80;;;;;;;;;;5051187;28;20174;-74
2022/04/16 03:35:52;;;;;;;21.40;15.65;;;;;;;;;;5055958;28;20421;-74
2022/04/16 03:38:19;;;;;;;21.33;15.07;;;;;;;;;;5056039;28;20170;-75
2022/04/16 03:40:48;;;;;;;20.80;14.77;;;;;;;;;;5055643;28;20219;-75
2022/04/16 03:43:14;;;;;;;19.10;14.85;;;;;;;;;;5055855;28;20270;-75
2022/04/16 03:45:40;;;;;;;20.08;16.10;;;;;;;;;;5055920;28;20179;-76
2022/04/16 03:48:07;;;;;;;20.83;14.60;;;;;;;;;;5056018;28;20525;-75
2022/04/16 03:50:33;;;;;;;18.05;13.10;;;;;;;;;;5055468;28;20829;-74
2022/04/16 03:53:00;;;;;;;18.67;15.05;;;;;;;;;;5055831;28;20208;-74
2022/04/16 04:00:57;;;;;;;24.55;15.50;;;;;;;;;;5055278;28;20197;-74
2022/04/16 04:03:23;;;;;;;21.50;14.90;;;;;;;;;;5055512;28;20187;-77
2022/04/16 04:05:53;;;;;;;18.83;14.82;;;;;;;;;;5054256;28;20686;-76
2022/04/16 04:08:20;;;;;;;24.73;16.75;;;;;;;;;;5055455;28;20169;-74
2022/04/16 04:10:46;;;;;;;18.45;14.82;;;;;;;;;;5054855;28;20209;-73
2022/04/16 04:13:13;;;;;;;21.35;15.77;;;;;;;;;;5055249;28;20175;-74
2022/04/16 04:15:39;;;;;;;20.58;16.42;;;;;;;;;;5055151;28;20170;-75
2022/04/16 04:18:05;;;;;;;22.23;15.60;;;;;;;;;;5055267;28;20545;-73
2022/04/16 04:20:31;;;;;;;20.30;16.25;;;;;;;;;;5054852;28;20253;-77
2022/04/16 04:22:57;;;;;;;21.55;15.85;;;;;;;;;;5055018;28;20212;-76
2022/04/16 04:25:23;;;;;;;22.47;16.77;;;;;;;;;;5054954;28;20550;-75
2022/04/16 04:27:49;;;;;;;21.23;15.70;;;;;;;;;;5055011;28;20447;-75
2022/04/16 04:30:15;;;;;;;21.00;16.58;;;;;;;;;;5054763;28;20460;-75
2022/04/16 04:32:41;;;;;;;22.48;16.08;;;;;;;;;;5054849;28;20559;-74
2022/04/16 04:35:08;;;;;;;22.63;17.43;;;;;;;;;;5054839;28;20174;-73
2022/04/16 04:37:34;;;;;;;23.25;16.27;;;;;;;;;;5054614;28;20412;-76
2022/04/16 04:40:00;;;;;;;19.08;16.05;;;;;;;;;;5053535;28;20545;-74
2022/04/16 04:42:30;;;;;;;25.00;16.40;;;;;;;;;;5054442;28;20189;-75
2022/04/16 04:44:56;;;;;;;19.35;14.40;;;;;;;;;;5054567;28;20412;-75
2022/04/16 04:47:22;;;;;;;20.35;15.93;;;;;;;;;;5054729;28;20194;-76
2022/04/16 04:49:48;;;;;;;21.70;15.97;;;;;;;;;;5054762;28;20173;-74
2022/04/16 04:52:26;;;;;;;24.00;15.88;;;;;;;;;;5054073;28;20838;-76
2022/04/16 04:54:52;;;;;;;24.38;15.05;;;;;;;;;;5054540;28;20177;-75
2022/04/16 04:57:18;;;;;;;18.27;14.05;;;;;;;;;;5054876;28;20181;-75
2022/04/16 04:59:44;;;;;;;18.97;12.80;;;;;;;;;;5054285;28;20544;-75
2022/04/16 05:02:10;;;;;;;25.57;17.67;;;;;;;;;;5053923;28;20432;-73
2022/04/16 05:04:36;;;;;;;20.67;15.88;;;;;;;;;;5054425;28;20409;-73
2022/04/16 05:07:03;;;;;;;28.42;17.95;;;;;;;;;;5054390;28;20261;-76
2022/04/16 05:09:29;;;;;;;24.42;17.52;;;;;;;;;;5054303;28;20193;-74
2022/04/16 05:11:55;;;;;;;26.45;16.95;;;;;;;;;;5053531;28;20220;-74
2022/04/16 05:14:21;;;;;;;20.45;15.68;;;;;;;;;;5054228;28;20178;-73
2022/04/16 05:16:47;;;;;;;19.20;15.15;;;;;;;;;;5054203;28;20178;-73
2022/04/16 05:19:14;;;;;;;20.30;16.30;;;;;;;;;;5054093;28;20641;-72
2022/04/16 05:21:40;;;;;;;22.13;16.42;;;;;;;;;;5053562;28;20251;-75
2022/04/16 05:24:09;;;;;;;21.43;15.27;;;;;;;;;;5053884;28;20604;-74
2022/04/16 05:26:35;;;;;;;21.55;15.93;;;;;;;;;;5053804;28;20821;-74
2022/04/16 05:29:01;;;;;;;25.08;17.35;;;;;;;;;;5053901;28;20213;-76
2022/04/16 05:31:29;;;;;;;23.97;17.40;;;;;;;;;;5053345;28;20637;-74
2022/04/16 05:36:40;;;;;;;24.77;18.00;;;;;;;;;;5053927;28;20603;-74
2022/04/16 05:39:06;;;;;;;23.87;18.43;;;;;;;;;;5052520;28;20174;-73
2022/04/16 05:41:35;;;;;;;24.88;18.20;;;;;;;;;;5053211;28;20485;-75
2022/04/16 05:44:02;;;;;;;25.10;18.25;;;;;;;;;;5053392;28;20200;-76
2022/04/16 05:46:28;;;;;;;28.90;20.08;;;;;;;;;;5053427;28;20170;-75
2022/04/16 05:48:54;;;;;;;27.05;18.65;;;;;;;;;;5053565;28;20717;-76
2022/04/16 05:51:21;;;;;;;25.33;19.40;;;;;;;;;;5053036;28;20293;-75
2022/04/16 05:53:47;;;;;;;29.20;20.17;;;;;;;;;;5053649;28;20459;-74
2022/04/16 05:56:14;;;;;;;26.65;18.45;;;;;;;;;;5053279;28;20184;-75
2022/04/16 05:58:40;;;;;;;28.40;19.08;;;;;;;;;;5053274;28;20201;-74
2022/04/16 06:01:09;;;;;;;25.80;17.90;;;;;;;;;;5052885;28;20182;-75
2022/04/16 06:03:42;;;;;;;29.17;21.73;;;;;;;;;;5053272;28;20184;-75
2022/04/16 06:06:08;;;;;;;29.67;21.02;;;;;;;;;;5053267;28;20235;-76
2022/04/16 06:08:34;;;;;;;31.73;21.75;;;;;;;;;;5053124;28;20642;-75
2022/04/16 06:11:00;;;;;;;39.65;23.20;;;;;;;;;;5052722;28;20205;-76
2022/04/16 06:13:27;;;;;;;33.33;21.52;;;;;;;;;;5053090;28;20173;-73
2022/04/16 06:15:52;;;;;;;37.00;22.92;;;;;;;;;;5053013;28;20232;-74
2022/04/16 06:18:18;;;;;;;33.83;21.53;;;;;;;;;;5052982;28;20622;-71
2022/04/16 06:20:44;;;;;;;32.00;21.03;;;;;;;;;;5052845;28;20440;-74
2022/04/16 06:23:10;;;;;;;36.83;22.17;;;;;;;;;;5052938;28;20427;-73
2022/04/16 06:25:36;;;;;;;33.13;22.03;;;;;;;;;;5052043;28;20435;-75
2022/04/16 06:28:03;;;;;;;33.58;20.63;;;;;;;;;;5053022;28;20415;-74
2022/04/16 06:30:29;;;;;;;32.95;19.63;;;;;;;;;;5052268;28;20202;-75
2022/04/16 06:32:55;;;;;;;25.70;17.87;;;;;;;;;;5052883;28;20604;-72
2022/04/16 06:35:21;;;;;;;30.25;21.65;;;;;;;;;;5052875;28;20946;-73
2022/04/16 06:37:47;;;;;;;30.08;19.42;;;;;;;;;;5052928;28;20174;-72
2022/04/16 06:40:13;;;;;;;32.40;20.80;;;;;;;;;;5052558;28;20257;-74
2022/04/16 06:42:39;;;;;;;26.27;18.23;;;;;;;;;;5052565;28;20812;-75
2022/04/16 06:45:06;;;;;;;24.75;18.60;;;;;;;;;;5053090;28;20401;-73
2022/04/16 06:47:32;;;;;;;30.25;18.63;;;;;;;;;;5052696;28;20182;-74
2022/04/16 06:49:58;;;;;;;25.60;17.00;;;;;;;;;;5052848;28;20257;-75
2022/04/16 06:52:24;;;;;;;24.10;17.38;;;;;;;;;;5052205;28;20471;-71
2022/04/16 06:54:51;;;;;;;25.60;16.33;;;;;;;;;;5052800;28;20259;-71
2022/04/16 06:57:17;;;;;;;21.48;16.10;;;;;;;;;;5052759;28;20177;-73
2022/04/16 06:59:43;;;;;;;18.73;14.45;;;;;;;;;;5052732;28;20203;-71
2022/04/16 07:02:10;;;;;;;25.75;17.40;;;;;;;;;;5052342;28;20198;-74
2022/04/16 07:04:36;;;;;;;23.63;16.10;;;;;;;;;;5052509;28;20323;-73
2022/04/16 07:07:02;;;;;;;20.95;14.80;;;;;;;;;;5052666;28;20633;-73
2022/04/16 07:09:28;;;;;;;18.77;14.30;;;;;;;;;;5053909;28;20222;-71
2022/04/16 07:11:54;;;;;;;22.08;14.93;;;;;;;;;;5055840;28;20212;-73
2022/04/16 07:14:21;;;;;;;21.33;15.60;;;;;;;;;;5056434;28;20245;-74
2022/04/16 07:16:47;;;;;;;23.98;17.25;;;;;;;;;;5056350;28;20599;-72
2022/04/16 07:19:13;;;;;;;21.50;14.60;;;;;;;;;;5056525;28;20195;-73
2022/04/16 07:21:39;;;;;;;21.50;16.03;;;;;;;;;;5055816;28;20421;-74
2022/04/16 07:24:05;;;;;;;23.67;15.37;;;;;;;;;;5056294;28;20416;-73
2022/04/16 07:26:31;;;;;;;25.60;14.65;;;;;;;;;;5056051;28;20518;-74
2022/04/16 07:28:57;;;;;;;27.30;15.10;;;;;;;;;;5056087;28;20206;-73
2022/04/16 07:31:23;;;;;;;17.00;13.30;;;;;;;;;;5055603;28;20546;-73
2022/04/16 07:33:49;;;;;;;17.30;13.30;;;;;;;;;;5056133;28;20267;-73
2022/04/16 07:36:15;;;;;;;17.80;12.80;;;;;;;;;;5054795;28;20402;-76
2022/04/16 07:38:43;;;;;;;19.20;13.90;;;;;;;;;;5055772;28;20415;-75
2022/04/16 07:41:09;;;;;;;21.90;15.60;;;;;;;;;;5055332;28;20827;-71
2022/04/16 07:43:35;;;;;;;18.73;13.35;;;;;;;;;;5055756;28;20177;-73
2022/04/16 07:46:01;;;;;;;18.73;13.77;;;;;;;;;;5054584;28;20286;-72
2022/04/16 07:48:27;;;;;;;21.67;15.30;;;;;;;;;;5055677;28;20431;-74
2022/04/16 07:50:53;;;;;;;15.33;11.57;;;;;;;;;;5055091;28;20472;-74
2022/04/16 07:53:19;;;;;;;19.23;14.18;;;;;;;;;;5054352;28;20410;-73
2022/04/16 07:55:45;;;;;;;15.77;13.20;;;;;;;;;;5055514;28;20581;-75
2022/04/16 07:58:11;;;;;;;17.33;13.55;;;;;;;;;;5055764;28;20410;-75
2022/04/16 08:00:37;;;;;;;14.73;11.67;;;;;;;;;;5055109;28;20174;-73
2022/04/16 08:03:03;;;;;;;16.10;12.27;;;;;;;;;;5055439;28;20446;-76
2022/04/16 08:05:29;;;;;;;17.83;12.93;;;;;;;;;;5055489;28;20419;-75
2022/04/16 08:07:55;;;;;;;16.63;12.37;;;;;;;;;;5055422;28;20415;-75
2022/04/16 08:10:22;;;;;;;17.27;12.55;;;;;;;;;;5054925;28;20468;-71
2022/04/16 08:12:48;;;;;;;16.92;12.10;;;;;;;;;;5055351;28;20200;-73
2022/04/16 08:15:14;;;;;;;19.90;13.23;;;;;;;;;;5055107;28;20174;-73
2022/04/16 08:17:40;;;;;;;14.03;11.67;;;;;;;;;;5055346;28;20907;-74
2022/04/16 08:20:06;;;;;;;15.32;11.82;;;;;;;;;;5053408;28;20408;-73
2022/04/16 08:22:34;;;;;;;15.80;11.50;;;;;;;;;;5054739;28;20204;-72
2022/04/16 08:27:46;;;;;;;13.20;11.00;;;;;;;;;;5055111;28;20469;-74
2022/04/16 08:30:13;;;;;;;15.50;12.00;;;;;;;;;;5054606;28;20901;-74
2022/04/16 08:32:43;;;;;;;16.50;11.80;;;;;;;;;;5054794;28;20486;-74
2022/04/16 08:35:09;;;;;;;12.83;11.00;;;;;;;;;;5054800;28;20415;-72
2022/04/16 08:37:35;;;;;;;11.77;9.40;;;;;;;;;;5054645;28;20408;-75
2022/04/16 08:40:01;;;;;;;12.07;9.07;;;;;;;;;;5054773;28;20409;-73
2022/04/16 08:42:27;;;;;;;12.20;9.60;;;;;;;;;;5054274;28;20420;-75
2022/04/16 08:44:53;;;;;;;12.07;10.43;;;;;;;;;;5054805;28;20401;-72
2022/04/16 08:47:20;;;;;;;12.03;10.10;;;;;;;;;;5054548;28;20420;-73
2022/04/16 08:49:46;;;;;;;12.30;10.13;;;;;;;;;;5054550;28;20819;-73
2022/04/16 08:52:12;;;;;;;12.30;11.00;;;;;;;;;;5054166;28;20940;-73
2022/04/16 08:54:39;;;;;;;11.77;9.20;;;;;;;;;;5054464;28;20893;-76
2022/04/16 08:57:05;;;;;;;10.30;8.90;;;;;;;;;;5054308;28;20408;-72
2022/04/16 08:59:31;;;;;;;10.13;8.23;;;;;;;;;;5054176;28;20478;-75
2022/04/16 09:02:00;;;;;;;10.33;7.50;;;;;;;;;;5053757;28;20509;-72
2022/04/16 09:04:28;;;;;;;8.70;6.90;;;;;;;;;;5054345;28;20739;-74
2022/04/16 09:06:57;;;;;;;8.50;7.60;;;;;;;;;;5054160;28;20436;-75
2022/04/16 09:09:23;;;;;;;8.13;6.60;;;;;;;;;;5054086;28;20436;-74
2022/04/16 09:11:49;;;;;;;9.20;7.67;;;;;;;;;;5053657;28;20866;-75
2022/04/16 09:14:15;;;;;;;9.90;7.53;;;;;;;;;;5054185;28;20470;-75
2022/04/16 09:16:42;;;;;;;7.50;6.70;;;;;;;;;;5054175;28;20441;-76
2022/04/16 09:19:17;;;;;;;7.20;6.50;;;;;;;;;;5054154;28;20393;-74
2022/04/16 09:21:43;;;;;;;8.00;7.20;;;;;;;;;;5053517;28;20431;-73
2022/04/16 09:24:11;;;;;;;7.90;7.10;;;;;;;;;;5054143;28;20420;-72
2022/04/16 09:26:39;;;;;;;7.33;6.20;;;;;;;;;;5052525;28;20411;-74
2022/04/16 09:29:15;;;;;;;7.00;6.30;;;;;;;;;;5053964;28;20470;-73
2022/04/16 09:31:45;;;;;;;6.67;5.97;;;;;;;;;;5052531;28;20472;-74
2022/04/16 09:34:22;;;;;;;7.17;6.40;;;;;;;;;;5054054;28;20407;-76
2022/04/16 09:36:49;;;;;;;7.03;6.33;;;;;;;;;;5053542;28;20404;-74
2022/04/16 09:39:15;;;;;;;7.40;6.67;;;;;;;;;;5053741;28;20415;-74
2022/04/16 09:41:44;;;;;;;6.77;6.07;;;;;;;;;;5052997;28;20800;-75
2022/04/16 09:44:20;;;;;;;8.87;5.90;;;;;;;;;;5052296;28;20482;-75
2022/04/16 09:46:47;;;;;;;11.47;5.90;;;;;;;;;;5053680;28;20454;-72
2022/04/16 09:49:14;;;;;;;7.50;5.60;;;;;;;;;;5052232;28;20732;-74
2022/04/16 09:51:42;;;;;;;6.30;5.30;;;;;;;;;;5052941;28;20504;-75
2022/04/16 09:54:15;;;;;;;5.33;4.20;;;;;;;;;;5053232;28;20409;-75
2022/04/16 09:56:42;;;;;;;6.10;5.60;;;;;;;;;;5053204;28;21086;-75
2022/04/16 09:59:12;;;;;;;6.70;6.00;;;;;;;;;;5053389;28;20465;-75
2022/04/16 10:01:38;;;;;;;7.13;6.43;;;;;;;;;;5052897;28;20940;-72
2022/04/16 10:04:05;;;;;;;5.33;4.83;;;;;;;;;;5053405;28;20901;-73
2022/04/16 10:06:31;;;;;;;5.93;5.33;;;;;;;;;;5053562;28;20908;-73
2022/04/16 10:09:00;;;;;;;6.27;5.67;;;;;;;;;;5053264;28;20433;-74
2022/04/16 10:12:59;;;;;;;6.37;5.00;;;;;;;;;;5052738;28;20478;-75
2022/04/16 10:14:31;;;;;;;4.27;3.90;;;;;;;;;;5052952;28;20925;-75
2022/04/16 10:17:16;;;;;;;3.50;3.20;;;;;;;;;;5053171;28;20461;-74
2022/04/16 10:19:48;;;;;;;3.70;3.40;;;;;;;;;;5051852;28;20411;-74
2022/04/16 10:22:24;;;;;;;3.30;3.00;;;;;;;;;;5052516;28;20428;-75
2022/04/16 10:24:51;;;;;;;3.57;3.27;;;;;;;;;;5051845;28;20414;-73
2022/04/16 10:27:25;;;;;;;3.53;3.23;;;;;;;;;;5051877;28;20405;-72
2022/04/16 10:29:51;;;;;;;3.40;3.10;;;;;;;;;;5053091;28;20419;-73
2022/04/16 10:32:18;;;;;;;4.83;2.83;;;;;;;;;;5052392;28;20468;-73
2022/04/16 10:34:45;;;;;;;3.30;3.00;;;;;;;;;;5053117;28;20401;-75
2022/04/16 10:37:21;;;;;;;3.33;3.03;;;;;;;;;;5052784;28;20404;-74
2022/04/16 10:39:47;;;;;;;2.70;2.50;;;;;;;;;;5052915;28;20477;-75
2022/04/16 10:42:13;;;;;;;3.03;2.57;;;;;;;;;;5050964;28;20543;-74
2022/04/16 10:44:44;;;;;;;3.27;2.67;;;;;;;;;;5056329;28;20431;-74
2022/04/16 10:47:14;;;;;;;2.87;2.67;;;;;;;;;;5056753;28;20558;-74
2022/04/16 10:49:41;;;;;;;3.27;2.90;;;;;;;;;;5056717;28;20417;-73
2022/04/16 10:52:18;;;;;;;2.70;2.00;;;;;;;;;;5056288;28;20460;-72
2022/04/16 10:54:47;;;;;;;2.60;2.37;;;;;;;;;;5057051;28;20400;-73
2022/04/16 10:57:20;;;;;;;3.30;2.87;;;;;;;;;;5056846;28;20403;-73
2022/04/16 10:59:46;;;;;;;2.33;2.13;;;;;;;;;;5056927;28;20412;-74
2022/04/16 11:02:15;;;;;;;2.70;2.50;;;;;;;;;;5056169;28;20485;-75
2022/04/16 11:04:41;;;;;;;3.83;2.90;;;;;;;;;;5056567;28;20944;-75
2022/04/16 11:07:08;;;;;;;3.47;3.13;;;;;;;;;;5056498;28;20467;-73
2022/04/16 11:09:35;;;;;;;3.03;2.73;;;;;;;;;;5056379;28;20402;-73
2022/04/16 11:12:05;;;;;;;3.40;3.10;;;;;;;;;;5056035;28;20831;-74
2022/04/16 11:14:31;;;;;;;2.97;2.67;;;;;;;;;;5056293;28;20408;-73
2022/04/16 11:17:02;;;;;;;2.47;2.27;;;;;;;;;;5056246;28;20404;-72
2022/04/16 11:19:31;;;;;;;2.60;2.40;;;;;;;;;;5056325;28;20466;-74
2022/04/16 11:21:57;;;;;;;2.70;1.97;;;;;;;;;;5055703;28;20909;-74
2022/04/16 11:24:23;;;;;;;2.30;2.10;;;;;;;;;;5054858;28;20897;-72
2022/04/16 11:35:12;;;;;;;2.37;2.17;;;;;;;;;;5056337;28;20391;-73
2022/04/16 11:37:38;;;;;;;2.60;2.33;;;;;;;;;;5054659;28;20494;-74
2022/04/16 11:40:05;;;;;;;4.93;2.50;;;;;;;;;;5055847;28;20447;-75
2022/04/16 11:42:32;;;;;;;3.90;3.30;;;;;;;;;;5055572;28;20534;-74
2022/04/16 11:44:58;;;;;;;3.30;3.00;;;;;;;;;;5055811;28;20403;-73
2022/04/16 11:47:25;;;;;;;3.13;2.83;;;;;;;;;;5054605;28;21015;-74
2022/04/16 11:49:52;;;;;;;2.00;1.90;;;;;;;;;;5055547;28;20416;-73
2022/04/16 11:52:25;;;;;;;2.60;2.30;;;;;;;;;;5055294;28;20475;-73
2022/04/16 11:55:00;;;;;;;2.03;1.90;;;;;;;;;;5054665;28;20520;-75
2022/04/16 11:57:26;;;;;;;2.10;1.77;;;;;;;;;;5055607;28;20499;-74
2022/04/16 11:59:56;;;;;;;3.10;2.57;;;;;;;;;;5055680;28;20436;-76
2022/04/16 12:02:22;;;;;;;2.70;2.40;;;;;;;;;;5055196;28;20432;-75
2022/04/16 12:04:48;;;;;;;2.20;1.90;;;;;;;;;;5054116;28;20746;-73
2022/04/16 12:07:17;;;;;;;2.10;1.90;;;;;;;;;;5055441;28;20451;-74
2022/04/16 12:09:45;;;;;;;2.50;1.73;;;;;;;;;;5055432;28;20444;-75
2022/04/16 12:12:17;;;;;;;1.70;1.60;;;;;;;;;;5054996;28;20467;-74
2022/04/16 12:14:51;;;;;;;2.33;1.80;;;;;;;;;;5055391;28;20853;-75
2022/04/16 12:17:24;;;;;;;3.60;1.90;;;;;;;;;;5055175;28;20757;-72
2022/04/16 12:20:10;;;;;;;2.23;1.97;;;;;;;;;;5055405;28;20411;-73
2022/04/16 12:22:54;;;;;;;2.03;1.80;;;;;;;;;;5055171;28;20420;-74
2022/04/16 12:25:21;;;;;;;1.90;1.47;;;;;;;;;;5055062;28;20397;-73
2022/04/16 12:27:57;;;;;;;2.27;2.07;;;;;;;;;;5055048;28;20436;-73
2022/04/16 12:30:24;;;;;;;3.07;2.30;;;;;;;;;;5054649;28;20400;-74
2022/04/16 12:33:12;;;;;;;2.23;2.03;;;;;;;;;;5055301;28;20455;-75
2022/04/16 12:35:47;;;;;;;2.30;1.67;;;;;;;;;;5055066;28;20405;-73
2022/04/16 12:38:15;;;;;;;2.07;1.80;;;;;;;;;;5054838;28;20424;-75
2022/04/16 12:40:41;;;;;;;2.90;1.80;;;;;;;;;;5054527;28;20782;-75
2022/04/16 12:43:07;;;;;;;1.90;1.80;;;;;;;;;;5054537;28;20439;-73
2022/04/16 12:45:33;;;;;;;2.27;2.07;;;;;;;;;;5054519;28;20417;-76
2022/04/16 12:47:59;;;;;;;2.70;2.50;;;;;;;;;;5054612;28;20391;-75
2022/04/16 12:50:30;;;;;;;2.40;2.20;;;;;;;;;;5054183;28;20924;-73
2022/04/16 12:52:56;;;;;;;2.47;2.20;;;;;;;;;;5053305;28;20965;-74
2022/04/16 12:55:22;;;;;;;2.80;2.17;;;;;;;;;;5054710;28;20452;-73
2022/04/16 12:57:48;;;;;;;5.73;2.57;;;;;;;;;;5054475;28;20409;-72
2022/04/16 13:00:15;;;;;;;2.07;1.67;;;;;;;;;;5054114;28;20494;-72
2022/04/16 13:02:42;;;;;;;4.10;2.23;;;;;;;;;;5054502;28;20425;-73
2022/04/16 13:05:11;;;;;;;5.67;2.87;;;;;;;;;;5054365;28;20913;-73
2022/04/16 13:07:39;;;;;;;2.57;2.00;;;;;;;;;;5053061;28;20982;-73
2022/04/16 13:10:06;;;;;;;3.23;2.03;;;;;;;;;;5054181;28;20436;-72
2022/04/16 13:12:32;;;;;;;3.17;2.30;;;;;;;;;;5053789;28;20475;-75
2022/04/16 13:14:58;;;;;;;2.70;2.50;;;;;;;;;;5052901;28;20485;-74
2022/04/16 13:17:24;;;;;;;1.90;1.80;;;;;;;;;;5054015;28;20417;-74
2022/04/16 13:19:50;;;;;;;2.60;2.40;;;;;;;;;;5054004;28;20421;-74
2022/04/16 13:22:16;;;;;;;2.17;1.97;;;;;;;;;;5053512;28;20487;-73
2022/04/16 13:24:42;;;;;;;1.90;1.80;;;;;;;;;;5053945;28;20495;-73
2022/04/16 13:27:08;;;;;;;2.20;1.80;;;;;;;;;;5052933;28;20968;-75
2022/04/16 13:29:34;;;;;;;4.00;1.90;;;;;;;;;;5052682;28;20530;-75
2022/04/16 13:32:01;;;;;;;2.10;1.90;;;;;;;;;;5053427;28;20468;-73
2022/04/16 13:34:27;;;;;;;2.47;2.27;;;;;;;;;;5053819;28;20413;-74
2022/04/16 13:36:53;;;;;;;3.10;2.43;;;;;;;;;;5053837;28;20794;-74
2022/04/16 13:42:04;;;;;;;2.23;2.13;;;;;;;;;;5053310;28;20435;-73
2022/04/16 13:44:29;;;;;;;2.27;2.07;;;;;;;;;;5052280;28;20423;-74
2022/04/16 13:46:56;;;;;;;2.27;1.97;;;;;;;;;;5053578;28;20416;-72
2022/04/16 13:49:22;;;;;;;2.60;2.40;;;;;;;;;;5052199;28;20487;-75
2022/04/16 13:51:48;;;;;;;2.93;2.70;;;;;;;;;;5052954;28;20848;-73
2022/04/16 13:54:14;;;;;;;2.00;1.80;;;;;;;;;;5053469;28;20419;-72
2022/04/16 13:56:40;;;;;;;5.77;3.00;;;;;;;;;;5052214;28;20470;-74
2022/04/16 13:59:06;;;;;;;2.30;2.10;;;;;;;;;;5053488;28;20405;-75
2022/04/16 14:01:34;;;;;;;3.60;2.67;;;;;;;;;;5052929;28;20498;-73
2022/04/16 14:04:03;;;;;;;2.27;2.07;;;;;;;;;;5053219;28;20798;-73
2022/04/16 14:06:32;;;;;;;2.80;2.60;;;;;;;;;;5053267;28;20435;-72
2022/04/16 14:08:58;;;;;;;3.03;2.73;;;;;;;;;;5053446;28;20929;-75
2022/04/16 14:11:24;;;;;;;2.60;2.40;;;;;;;;;;5052839;28;20964;-72
2022/04/16 14:13:50;;;;;;;2.77;2.47;;;;;;;;;;5053369;28;20419;-74
2022/04/16 14:16:17;;;;;;;2.23;2.03;;;;;;;;;;5053286;28;20466;-74
2022/04/16 14:18:43;;;;;;;3.13;2.03;;;;;;;;;;5052935;28;20412;-74
2022/04/16 14:21:12;;;;;;;2.80;2.50;;;;;;;;;;5052790;28;20463;-75
2022/04/16 14:23:40;;;;;;;1.60;1.50;;;;;;;;;;5053189;28;20404;-75
2022/04/16 14:26:06;;;;;;;2.23;1.80;;;;;;;;;;5052951;28;20413;-72
2022/04/16 14:28:32;;;;;;;3.70;2.00;;;;;;;;;;5051897;28;20795;-73
2022/04/16 14:30:59;;;;;;;2.50;2.30;;;;;;;;;;5052668;28;20868;-72
2022/04/16 14:33:25;;;;;;;2.10;1.70;;;;;;;;;;5052993;28;20423;-74
2022/04/16 14:35:51;;;;;;;3.23;2.00;;;;;;;;;;5052886;28;20452;-73
2022/04/16 14:38:18;;;;;;;2.00;1.70;;;;;;;;;;5052993;28;20412;-75
2022/04/16 14:40:44;;;;;;;1.73;1.63;;;;;;;;;;5052717;28;20417;-73
2022/04/16 14:43:11;;;;;;;2.47;1.57;;;;;;;;;;5052861;28;20433;-74
2022/04/16 14:45:38;;;;;;;2.33;2.07;;;;;;;;;;5052914;28;20757;-75
2022/04/16 14:48:04;;;;;;;2.50;2.30;;;;;;;;;;5051565;28;20468;-73
2022/04/16 14:50:30;;;;;;;2.20;2.00;;;;;;;;;;5052318;28;20827;-74
2022/04/16 14:52:56;;;;;;;1.90;1.70;;;;;;;;;;5052977;28;20425;-75
2022/04/16 14:55:22;;;;;;;2.30;2.07;;;;;;;;;;5052834;28;20901;-75